Time;durP1;ratioP1;P1;durP2;ratioP2;P2;SDS_P1;SDS_P2;PMS_P1;PMS_P2;Temp;Humidity;BMP_temperature;BMP_pressure;BME280_temperature;BME280_humidity;BME280_pressure;Samples;Min_cycle;Max_cycle;Signal;HPM_P1;HPM_P2
2021/05/30 00:00:49;;;;;;;0.00;0.00;;;;;;;;;;5009445;28;20195;-66
2021/05/30 00:03:15;;;;;;;2.63;0.50;;;;;;;;;;5019323;28;21038;-66
2021/05/30 00:05:42;;;;;;;0.00;0.00;;;;;;;;;;5019121;28;20917;-65
2021/05/30 00:08:09;;;;;;;1.70;0.23;;;;;;;;;;5017320;28;20246;-66
2021/05/30 00:10:36;;;;;;;0.00;0.00;;;;;;;;;;5017062;28;20177;-66
2021/05/30 00:13:02;;;;;;;0.00;0.00;;;;;;;;;;5016138;28;20907;-66
2021/05/30 00:15:30;;;;;;;0.00;0.00;;;;;;;;;;5014703;28;20242;-66
2021/05/30 00:17:56;;;;;;;0.00;0.00;;;;;;;;;;5019377;28;20298;-65
2021/05/30 00:20:23;;;;;;;0.00;0.00;;;;;;;;;;5018071;28;20209;-65
2021/05/30 00:22:50;;;;;;;0.00;0.00;;;;;;;;;;5019841;28;20192;-65
2021/05/30 00:25:16;;;;;;;0.00;0.00;;;;;;;;;;5018509;28;20278;-66
2021/05/30 00:27:43;;;;;;;0.00;0.00;;;;;;;;;;5015227;28;20207;-65
2021/05/30 00:30:10;;;;;;;0.00;0.00;;;;;;;;;;5015022;28;20188;-66
2021/05/30 00:32:36;;;;;;;0.00;0.00;;;;;;;;;;5008308;28;20195;-65
2021/05/30 00:35:03;;;;;;;0.10;0.10;;;;;;;;;;5016003;28;20407;-66
2021/05/30 00:37:31;;;;;;;0.00;0.00;;;;;;;;;;5020958;28;20186;-66
2021/05/30 00:39:57;;;;;;;0.10;0.10;;;;;;;;;;5013743;28;20215;-65
2021/05/30 00:42:24;;;;;;;0.27;0.23;;;;;;;;;;5015822;28;20305;-66
2021/05/30 00:44:51;;;;;;;0.00;0.00;;;;;;;;;;5019169;28;20278;-65
2021/05/30 00:47:17;;;;;;;0.00;0.00;;;;;;;;;;5017979;28;20648;-66
2021/05/30 00:49:44;;;;;;;0.17;0.10;;;;;;;;;;5020253;28;20282;-68
2021/05/30 00:52:11;;;;;;;0.00;0.00;;;;;;;;;;5024890;28;20195;-66
2021/05/30 00:54:38;;;;;;;0.00;0.00;;;;;;;;;;5025589;28;20264;-66
2021/05/30 00:57:09;;;;;;;0.10;0.10;;;;;;;;;;5019786;28;20280;-66
2021/05/30 00:59:37;;;;;;;0.30;0.30;;;;;;;;;;5020101;28;20180;-66
2021/05/30 01:02:06;;;;;;;0.00;0.00;;;;;;;;;;4994535;28;20188;-66
2021/05/30 01:04:34;;;;;;;0.30;0.30;;;;;;;;;;5020579;28;20180;-66
2021/05/30 01:07:00;;;;;;;0.00;0.00;;;;;;;;;;5014020;28;20187;-66
2021/05/30 01:09:31;;;;;;;0.13;0.10;;;;;;;;;;5027187;28;20263;-65
2021/05/30 01:11:57;;;;;;;0.00;0.00;;;;;;;;;;5010367;28;20227;-66
2021/05/30 01:14:24;;;;;;;9.10;8.80;;;;;;;;;;5009443;28;20327;-66
2021/05/30 01:16:51;;;;;;;0.00;0.00;;;;;;;;;;5005689;28;20538;-66
2021/05/30 01:19:19;;;;;;;0.00;0.00;;;;;;;;;;5014407;28;20202;-66
2021/05/30 01:21:47;;;;;;;0.00;0.00;;;;;;;;;;5019370;28;20180;-66
2021/05/30 01:24:14;;;;;;;0.00;0.00;;;;;;;;;;5017847;28;20185;-66
2021/05/30 01:26:41;;;;;;;0.00;0.00;;;;;;;;;;5016038;28;20185;-66
2021/05/30 01:29:07;;;;;;;0.00;0.00;;;;;;;;;;5012989;28;20536;-67
2021/05/30 01:31:34;;;;;;;0.00;0.00;;;;;;;;;;5016465;28;20276;-66
2021/05/30 01:34:01;;;;;;;0.00;0.00;;;;;;;;;;5015720;28;20236;-67
2021/05/30 01:36:28;;;;;;;0.10;0.10;;;;;;;;;;5015152;28;20187;-66
2021/05/30 01:38:56;;;;;;;0.00;0.00;;;;;;;;;;5014551;28;20298;-66
2021/05/30 01:41:23;;;;;;;0.00;0.00;;;;;;;;;;5016336;28;20706;-66
2021/05/30 01:43:50;;;;;;;0.00;0.00;;;;;;;;;;5011793;28;20254;-66
2021/05/30 01:46:16;;;;;;;0.00;0.00;;;;;;;;;;5017260;28;21001;-66
2021/05/30 01:48:44;;;;;;;0.00;0.00;;;;;;;;;;5016062;28;20246;-66
2021/05/30 01:51:10;;;;;;;1.20;0.20;;;;;;;;;;5016981;28;20218;-66
2021/05/30 01:53:43;;;;;;;0.00;0.00;;;;;;;;;;5011681;28;20236;-66
2021/05/30 01:58:56;;;;;;;0.00;0.00;;;;;;;;;;5018932;28;20203;-66
2021/05/30 02:01:24;;;;;;;0.00;0.00;;;;;;;;;;5027257;28;20192;-66
2021/05/30 02:03:52;;;;;;;0.10;0.00;;;;;;;;;;5021016;28;20677;-66
2021/05/30 02:06:19;;;;;;;0.37;0.37;;;;;;;;;;5012496;28;21036;-66
2021/05/30 02:08:47;;;;;;;0.00;0.00;;;;;;;;;;5024417;28;20188;-66
2021/05/30 02:11:14;;;;;;;0.00;0.00;;;;;;;;;;5018447;28;20997;-67
2021/05/30 02:13:41;;;;;;;0.00;0.00;;;;;;;;;;5028702;28;20203;-66
2021/05/30 02:16:08;;;;;;;0.00;0.00;;;;;;;;;;5024513;28;20192;-67
2021/05/30 02:18:35;;;;;;;23.70;0.87;;;;;;;;;;5018319;28;20196;-66
2021/05/30 02:21:01;;;;;;;0.00;0.00;;;;;;;;;;5017975;28;20546;-66
2021/05/30 02:23:28;;;;;;;0.00;0.00;;;;;;;;;;5023807;28;20192;-66
2021/05/30 02:25:55;;;;;;;0.00;0.00;;;;;;;;;;5018243;28;20974;-66
2021/05/30 02:28:22;;;;;;;0.00;0.00;;;;;;;;;;5029241;28;20252;-67
2021/05/30 02:30:48;;;;;;;0.13;0.13;;;;;;;;;;5017352;28;20189;-66
2021/05/30 02:33:15;;;;;;;0.03;0.03;;;;;;;;;;5018238;28;20208;-66
2021/05/30 02:35:42;;;;;;;0.00;0.00;;;;;;;;;;5007238;28;20981;-68
2021/05/30 02:38:09;;;;;;;0.00;0.00;;;;;;;;;;5020781;28;20183;-65
2021/05/30 02:40:37;;;;;;;0.00;0.00;;;;;;;;;;5022027;28;20904;-64
2021/05/30 02:43:04;;;;;;;0.00;0.00;;;;;;;;;;5014793;28;20193;-64
2021/05/30 02:45:32;;;;;;;0.00;0.00;;;;;;;;;;5018357;28;20181;-65
2021/05/30 02:47:58;;;;;;;0.00;0.00;;;;;;;;;;5001654;28;20185;-65
2021/05/30 02:50:25;;;;;;;0.00;0.00;;;;;;;;;;5013821;28;20180;-64
2021/05/30 02:52:51;;;;;;;0.00;0.00;;;;;;;;;;5008009;28;20221;-64
2021/05/30 02:55:18;;;;;;;1.10;0.40;;;;;;;;;;5016244;28;20220;-64
2021/05/30 02:57:44;;;;;;;0.00;0.00;;;;;;;;;;5015590;28;20233;-64
2021/05/30 03:00:11;;;;;;;0.00;0.00;;;;;;;;;;5017532;28;20176;-64
2021/05/30 03:02:38;;;;;;;0.00;0.00;;;;;;;;;;5014855;28;20280;-64
2021/05/30 03:05:06;;;;;;;0.73;0.60;;;;;;;;;;5016107;28;20192;-64
2021/05/30 03:07:32;;;;;;;0.30;0.20;;;;;;;;;;5017726;28;20603;-64
2021/05/30 03:09:59;;;;;;;0.00;0.00;;;;;;;;;;5017383;28;20288;-65
2021/05/30 03:12:26;;;;;;;0.00;0.00;;;;;;;;;;5022729;28;20247;-64
2021/05/30 03:14:52;;;;;;;0.67;0.67;;;;;;;;;;5011431;28;20220;-64
2021/05/30 03:17:19;;;;;;;1.90;0.83;;;;;;;;;;5019770;28;20192;-64
2021/05/30 03:19:46;;;;;;;0.47;0.47;;;;;;;;;;5017487;28;20596;-64
2021/05/30 03:22:12;;;;;;;0.90;0.77;;;;;;;;;;5017947;28;20682;-64
2021/05/30 03:24:39;;;;;;;1.77;0.13;;;;;;;;;;5025340;28;20710;-64
2021/05/30 03:27:05;;;;;;;0.00;0.00;;;;;;;;;;5024138;28;20189;-64
2021/05/30 03:29:32;;;;;;;0.13;0.13;;;;;;;;;;5024814;28;20184;-64
2021/05/30 03:31:59;;;;;;;2.10;0.47;;;;;;;;;;5016587;28;20280;-64
2021/05/30 03:34:25;;;;;;;0.00;0.00;;;;;;;;;;5017384;28;20209;-68
2021/05/30 03:36:56;;;;;;;0.00;0.00;;;;;;;;;;5007789;28;20180;-65
2021/05/30 03:39:25;;;;;;;0.10;0.10;;;;;;;;;;5017551;28;20183;-65
2021/05/30 03:41:55;;;;;;;0.00;0.00;;;;;;;;;;5022000;28;20180;-64
2021/05/30 03:44:21;;;;;;;0.00;0.00;;;;;;;;;;5016140;28;20177;-65
2021/05/30 03:46:48;;;;;;;0.33;0.13;;;;;;;;;;5014441;28;20257;-66
2021/05/30 03:49:15;;;;;;;3.50;0.47;;;;;;;;;;5017124;28;20192;-65
2021/05/30 03:51:44;;;;;;;0.00;0.00;;;;;;;;;;5013162;28;20192;-65
2021/05/30 03:54:11;;;;;;;0.00;0.00;;;;;;;;;;5003147;28;20833;-65
2021/05/30 03:56:38;;;;;;;0.00;0.00;;;;;;;;;;5018333;28;20273;-65
2021/05/30 03:59:04;;;;;;;0.10;0.10;;;;;;;;;;5012562;28;20232;-65
2021/05/30 04:01:31;;;;;;;0.00;0.00;;;;;;;;;;5007574;28;20746;-66
2021/05/30 04:03:58;;;;;;;2.57;0.97;;;;;;;;;;5014099;28;20280;-66
2021/05/30 04:06:24;;;;;;;0.00;0.00;;;;;;;;;;5012673;28;20188;-65
2021/05/30 04:08:51;;;;;;;0.00;0.00;;;;;;;;;;5010725;28;20189;-65
2021/05/30 04:11:18;;;;;;;0.00;0.00;;;;;;;;;;5009802;28;20192;-66
2021/05/30 04:13:45;;;;;;;0.00;0.00;;;;;;;;;;5010354;28;20213;-65
2021/05/30 04:16:12;;;;;;;0.00;0.00;;;;;;;;;;5017554;28;20187;-65
2021/05/30 04:18:38;;;;;;;0.00;0.00;;;;;;;;;;5020933;28;20191;-65
2021/05/30 04:21:06;;;;;;;0.00;0.00;;;;;;;;;;5006100;28;20203;-66
2021/05/30 04:23:32;;;;;;;0.00;0.00;;;;;;;;;;5011788;28;20184;-65
2021/05/30 04:25:59;;;;;;;0.00;0.00;;;;;;;;;;5018457;28;20242;-66
2021/05/30 04:28:25;;;;;;;0.00;0.00;;;;;;;;;;5015047;28;20188;-65
2021/05/30 04:30:52;;;;;;;3.10;0.33;;;;;;;;;;5002105;28;20269;-66
2021/05/30 04:33:21;;;;;;;0.00;0.00;;;;;;;;;;5017461;28;20298;-66
2021/05/30 04:35:48;;;;;;;0.00;0.00;;;;;;;;;;5014625;28;20185;-65
2021/05/30 04:38:14;;;;;;;0.77;0.43;;;;;;;;;;5018253;28;20272;-66
2021/05/30 04:40:41;;;;;;;0.00;0.00;;;;;;;;;;5016602;28;20181;-66
2021/05/30 04:43:08;;;;;;;1.30;0.10;;;;;;;;;;5019261;28;20191;-65
2021/05/30 04:45:34;;;;;;;0.00;0.00;;;;;;;;;;5016918;28;20184;-65
2021/05/30 04:48:01;;;;;;;0.00;0.00;;;;;;;;;;5017113;28;20189;-65
2021/05/30 04:50:28;;;;;;;0.17;0.13;;;;;;;;;;5017793;28;20278;-65
2021/05/30 04:52:55;;;;;;;0.00;0.00;;;;;;;;;;5012684;28;20261;-65
2021/05/30 04:55:21;;;;;;;0.00;0.00;;;;;;;;;;5015711;28;20303;-65
2021/05/30 04:57:48;;;;;;;0.00;0.00;;;;;;;;;;5014902;28;20183;-65
2021/05/30 05:00:16;;;;;;;0.00;0.00;;;;;;;;;;5015395;28;20680;-65
2021/05/30 05:02:42;;;;;;;0.00;0.00;;;;;;;;;;5013940;28;20172;-65
2021/05/30 05:05:12;;;;;;;0.00;0.00;;;;;;;;;;5013504;28;20192;-65
2021/05/30 05:07:44;;;;;;;0.00;0.00;;;;;;;;;;5015457;28;20987;-66
2021/05/30 05:10:11;;;;;;;0.00;0.00;;;;;;;;;;5016309;28;20557;-65
2021/05/30 05:12:38;;;;;;;0.00;0.00;;;;;;;;;;5016455;28;20211;-65
2021/05/30 05:15:05;;;;;;;0.27;0.27;;;;;;;;;;5014474;28;20266;-66
2021/05/30 05:17:32;;;;;;;0.47;0.07;;;;;;;;;;5015979;28;20294;-65
2021/05/30 05:19:58;;;;;;;0.33;0.17;;;;;;;;;;5016287;28;20180;-65
2021/05/30 05:22:25;;;;;;;0.00;0.00;;;;;;;;;;5015674;28;20255;-66
2021/05/30 05:24:51;;;;;;;0.73;0.73;;;;;;;;;;5016720;28;20853;-66
2021/05/30 05:27:18;;;;;;;0.00;0.00;;;;;;;;;;5015726;28;20192;-65
2021/05/30 05:29:45;;;;;;;0.07;0.07;;;;;;;;;;5015504;28;20207;-65
2021/05/30 05:32:11;;;;;;;0.17;0.17;;;;;;;;;;5013304;28;20939;-66
2021/05/30 05:34:38;;;;;;;0.03;0.03;;;;;;;;;;5013717;28;20215;-65
2021/05/30 05:37:05;;;;;;;0.00;0.00;;;;;;;;;;5016522;28;20902;-65
2021/05/30 05:39:31;;;;;;;0.00;0.00;;;;;;;;;;5018420;28;20977;-65
2021/05/30 05:41:58;;;;;;;0.40;0.30;;;;;;;;;;5017592;28;20186;-66
2021/05/30 05:44:24;;;;;;;0.00;0.00;;;;;;;;;;5020205;28;20197;-65
2021/05/30 05:46:51;;;;;;;2.53;0.30;;;;;;;;;;5018627;28;20202;-65
2021/05/30 05:49:17;;;;;;;0.00;0.00;;;;;;;;;;5017906;28;20246;-66
2021/05/30 05:51:44;;;;;;;0.00;0.00;;;;;;;;;;5016822;28;20188;-66
2021/05/30 05:54:10;;;;;;;2.30;1.50;;;;;;;;;;5014309;28;20772;-65
2021/05/30 05:56:37;;;;;;;0.00;0.00;;;;;;;;;;5017059;28;20581;-66
2021/05/30 05:59:04;;;;;;;0.70;0.63;;;;;;;;;;5014182;28;20266;-66
2021/05/30 06:01:30;;;;;;;0.00;0.00;;;;;;;;;;5017622;28;20299;-65
2021/05/30 06:03:57;;;;;;;0.00;0.00;;;;;;;;;;5019845;28;20196;-65
2021/05/30 06:06:23;;;;;;;0.00;0.00;;;;;;;;;;5014640;28;20295;-65
2021/05/30 06:08:50;;;;;;;0.00;0.00;;;;;;;;;;5021299;28;20220;-65
2021/05/30 06:11:16;;;;;;;0.33;0.07;;;;;;;;;;5019436;28;21023;-66
2021/05/30 06:13:43;;;;;;;0.10;0.10;;;;;;;;;;5016218;28;20262;-66
2021/05/30 06:16:10;;;;;;;0.10;0.07;;;;;;;;;;5016049;28;20268;-65
2021/05/30 06:18:37;;;;;;;0.20;0.20;;;;;;;;;;5020865;28;20180;-65
2021/05/30 06:21:04;;;;;;;0.10;0.10;;;;;;;;;;5026266;28;20187;-65
2021/05/30 06:23:31;;;;;;;0.00;0.00;;;;;;;;;;5015323;28;20199;-65
2021/05/30 06:25:57;;;;;;;0.00;0.00;;;;;;;;;;5016048;28;20219;-65
2021/05/30 06:28:24;;;;;;;8.60;0.47;;;;;;;;;;5019441;28;20280;-65
2021/05/30 06:30:50;;;;;;;3.70;0.30;;;;;;;;;;5016384;28;20701;-65
2021/05/30 06:33:17;;;;;;;0.10;0.10;;;;;;;;;;5020377;28;20747;-65
2021/05/30 06:35:44;;;;;;;0.13;0.10;;;;;;;;;;5013724;28;20327;-65
2021/05/30 06:38:11;;;;;;;0.00;0.00;;;;;;;;;;5002765;28;20177;-66
2021/05/30 06:40:38;;;;;;;0.03;0.03;;;;;;;;;;5020263;28;20192;-66
2021/05/30 06:43:09;;;;;;;0.00;0.00;;;;;;;;;;5004308;28;20188;-65
2021/05/30 06:45:35;;;;;;;0.53;0.53;;;;;;;;;;5012216;28;20184;-65
2021/05/30 06:48:02;;;;;;;6.03;0.20;;;;;;;;;;5012220;28;20185;-66
2021/05/30 06:50:30;;;;;;;0.20;0.20;;;;;;;;;;5014373;28;20181;-65
2021/05/30 06:52:57;;;;;;;0.33;0.13;;;;;;;;;;5008465;28;21040;-65
2021/05/30 06:55:24;;;;;;;0.20;0.10;;;;;;;;;;5007038;28;20732;-66
2021/05/30 06:57:51;;;;;;;0.40;0.30;;;;;;;;;;5018010;28;20180;-66
2021/05/30 07:00:18;;;;;;;0.00;0.00;;;;;;;;;;5005015;28;20207;-66
2021/05/30 07:02:45;;;;;;;0.20;0.20;;;;;;;;;;5005784;28;20639;-66
2021/05/30 07:05:12;;;;;;;9.73;0.63;;;;;;;;;;5011437;28;20959;-65
2021/05/30 07:07:39;;;;;;;0.00;0.00;;;;;;;;;;5012037;28;20192;-65
2021/05/30 07:10:06;;;;;;;0.00;0.00;;;;;;;;;;5017954;28;20188;-65
2021/05/30 07:12:33;;;;;;;0.00;0.00;;;;;;;;;;5021363;28;20300;-65
2021/05/30 07:15:00;;;;;;;0.00;0.00;;;;;;;;;;5015341;28;20223;-65
2021/05/30 07:17:27;;;;;;;0.00;0.00;;;;;;;;;;5007756;28;20189;-65
2021/05/30 07:19:55;;;;;;;0.30;0.30;;;;;;;;;;5011153;28;20685;-66
2021/05/30 07:22:22;;;;;;;0.20;0.20;;;;;;;;;;5001078;28;20188;-65
2021/05/30 07:24:49;;;;;;;0.00;0.00;;;;;;;;;;5005917;28;20924;-65
2021/05/30 07:27:15;;;;;;;0.00;0.00;;;;;;;;;;5017875;28;20184;-66
2021/05/30 07:29:42;;;;;;;0.00;0.00;;;;;;;;;;5018910;28;20267;-66
2021/05/30 07:32:09;;;;;;;0.00;0.00;;;;;;;;;;5018027;28;20223;-67
2021/05/30 07:34:35;;;;;;;0.00;0.00;;;;;;;;;;5017600;28;20207;-66
2021/05/30 13:03:31;;;;;;;0.00;0.00;;;;;;;;;;5084683;27;20581;-66
2021/05/30 13:05:58;;;;;;;0.10;0.10;;;;;;;;;;5083596;28;20310;-66
2021/05/30 13:08:29;;;;;;;0.00;0.00;;;;;;;;;;5072702;28;20196;-67
2021/05/30 13:11:00;;;;;;;0.00;0.00;;;;;;;;;;5076136;28;20281;-66
2021/05/30 13:13:39;;;;;;;0.23;0.23;;;;;;;;;;5076918;28;20297;-67
2021/05/30 13:16:06;;;;;;;0.40;0.00;;;;;;;;;;5072405;28;20191;-66
2021/05/30 13:18:48;;;;;;;0.60;0.10;;;;;;;;;;5074867;28;20310;-66
2021/05/30 13:21:28;;;;;;;0.73;0.20;;;;;;;;;;5076227;28;20290;-66
2021/05/30 13:24:05;;;;;;;0.13;0.03;;;;;;;;;;5076565;28;20932;-66
2021/05/30 13:26:31;;;;;;;0.23;0.10;;;;;;;;;;5076713;28;20287;-66
2021/05/30 13:28:58;;;;;;;0.17;0.17;;;;;;;;;;5076554;28;20182;-66
2021/05/30 13:31:24;;;;;;;0.63;0.10;;;;;;;;;;5078035;28;20643;-66
2021/05/30 13:33:54;;;;;;;2.33;0.73;;;;;;;;;;5082891;28;20185;-66
2021/05/30 13:36:23;;;;;;;0.10;0.03;;;;;;;;;;5074023;28;20193;-67
2021/05/30 13:38:49;;;;;;;0.00;0.00;;;;;;;;;;5074036;28;20255;-66
2021/05/30 13:41:16;;;;;;;0.87;0.53;;;;;;;;;;5076332;28;20189;-66
2021/05/30 13:43:43;;;;;;;0.60;0.23;;;;;;;;;;5076347;28;20194;-66
2021/05/30 13:46:09;;;;;;;0.30;0.10;;;;;;;;;;5076187;28;20220;-66
2021/05/30 13:48:36;;;;;;;1.10;1.10;;;;;;;;;;5076258;28;20193;-66
2021/05/30 13:51:09;;;;;;;0.00;0.00;;;;;;;;;;5076146;28;20228;-66
2021/05/30 13:53:36;;;;;;;0.00;0.00;;;;;;;;;;5076468;28;20349;-66
2021/05/30 13:56:02;;;;;;;0.00;0.00;;;;;;;;;;5076037;28;20205;-66
2021/05/30 13:58:29;;;;;;;0.27;0.10;;;;;;;;;;5076062;28;20691;-66
2021/05/30 14:00:56;;;;;;;0.77;0.40;;;;;;;;;;5076166;28;20370;-66
2021/05/30 14:03:23;;;;;;;0.43;0.00;;;;;;;;;;5075849;28;20398;-66
2021/05/30 14:05:49;;;;;;;0.27;0.20;;;;;;;;;;5076064;28;20185;-66
2021/05/30 14:08:16;;;;;;;0.10;0.03;;;;;;;;;;5078485;28;20183;-66
2021/05/30 14:10:43;;;;;;;11.33;0.20;;;;;;;;;;5075595;28;20189;-66
2021/05/30 14:13:09;;;;;;;0.50;0.13;;;;;;;;;;5071641;28;20217;-66
2021/05/30 14:15:36;;;;;;;0.87;0.00;;;;;;;;;;5061980;28;20198;-66
2021/05/30 14:18:02;;;;;;;1.50;0.27;;;;;;;;;;5061938;28;20803;-66
2021/05/30 14:20:29;;;;;;;3.40;1.23;;;;;;;;;;5055621;28;20266;-66
2021/05/30 14:22:55;;;;;;;1.80;1.17;;;;;;;;;;5065547;28;20214;-66
2021/05/30 14:25:22;;;;;;;0.00;0.00;;;;;;;;;;5061890;28;20188;-66
2021/05/30 14:27:50;;;;;;;1.10;1.00;;;;;;;;;;5061670;28;20179;-66
2021/05/30 14:30:17;;;;;;;0.97;0.40;;;;;;;;;;5067948;28;20207;-66
2021/05/30 14:32:43;;;;;;;0.30;0.10;;;;;;;;;;5062194;28;20188;-66
2021/05/30 14:35:10;;;;;;;1.40;0.30;;;;;;;;;;5061898;28;20782;-66
2021/05/30 14:37:37;;;;;;;1.07;1.03;;;;;;;;;;5060563;28;20869;-66
2021/05/30 14:40:07;;;;;;;0.73;0.70;;;;;;;;;;5062136;28;20254;-66
2021/05/30 14:42:34;;;;;;;0.00;0.00;;;;;;;;;;5062581;28;20297;-66
2021/05/30 14:45:01;;;;;;;0.00;0.00;;;;;;;;;;5066244;28;20235;-66
2021/05/30 14:47:28;;;;;;;1.70;0.30;;;;;;;;;;5062977;28;20718;-66
2021/05/30 14:49:54;;;;;;;1.03;0.57;;;;;;;;;;5066940;28;20187;-66
2021/05/30 14:52:21;;;;;;;0.03;0.00;;;;;;;;;;5061798;28;20193;-66
2021/05/30 14:54:50;;;;;;;0.00;0.00;;;;;;;;;;5061312;28;20187;-66
2021/05/30 14:57:17;;;;;;;0.00;0.00;;;;;;;;;;5061981;28;20231;-66
2021/05/30 14:59:43;;;;;;;0.00;0.00;;;;;;;;;;5061150;28;20197;-66
2021/05/30 15:02:10;;;;;;;1.33;0.27;;;;;;;;;;5067947;28;20228;-66
2021/05/30 15:04:36;;;;;;;2.47;0.60;;;;;;;;;;5063172;28;20194;-66
2021/05/30 15:07:03;;;;;;;0.37;0.13;;;;;;;;;;5064648;28;20186;-66
2021/05/30 15:09:30;;;;;;;0.20;0.20;;;;;;;;;;5061155;28;20277;-66
2021/05/30 15:11:56;;;;;;;3.70;0.30;;;;;;;;;;5061394;28;20194;-66
2021/05/30 15:14:23;;;;;;;0.33;0.33;;;;;;;;;;5061102;28;20197;-66
2021/05/30 15:16:50;;;;;;;0.93;0.50;;;;;;;;;;5061239;28;20579;-68
2021/05/30 15:19:16;;;;;;;1.40;0.30;;;;;;;;;;5061192;28;20269;-66
2021/05/30 15:21:49;;;;;;;0.27;0.13;;;;;;;;;;5061049;28;20212;-66
2021/05/30 15:24:16;;;;;;;1.53;0.27;;;;;;;;;;5056014;28;20283;-66
2021/05/30 15:26:42;;;;;;;5.10;1.37;;;;;;;;;;5059421;28;20191;-66
2021/05/30 15:29:09;;;;;;;1.80;0.20;;;;;;;;;;5058839;28;20691;-67
2021/05/30 15:31:44;;;;;;;0.10;0.10;;;;;;;;;;5061182;28;20186;-67
2021/05/30 15:34:10;;;;;;;0.10;0.10;;;;;;;;;;5060864;28;20230;-66
2021/05/30 15:36:37;;;;;;;0.00;0.00;;;;;;;;;;5060686;28;20183;-66
2021/05/30 15:39:04;;;;;;;1.03;0.17;;;;;;;;;;5066173;28;20175;-66
2021/05/30 15:41:31;;;;;;;0.10;0.10;;;;;;;;;;5059529;28;20210;-66
2021/05/30 15:43:57;;;;;;;0.30;0.20;;;;;;;;;;5060925;28;20272;-66
2021/05/30 15:46:24;;;;;;;0.00;0.00;;;;;;;;;;5061003;28;20182;-66
2021/05/30 15:48:50;;;;;;;5.70;4.17;;;;;;;;;;5060837;28;20183;-66
2021/05/30 15:51:26;;;;;;;2.13;0.10;;;;;;;;;;5060878;28;20190;-66
2021/05/30 15:53:57;;;;;;;0.00;0.00;;;;;;;;;;5060863;28;20927;-66
2021/05/30 15:56:24;;;;;;;0.00;0.00;;;;;;;;;;5061142;28;20214;-66
2021/05/30 15:58:51;;;;;;;1.60;0.20;;;;;;;;;;5060660;28;20861;-66
2021/05/30 16:01:18;;;;;;;0.10;0.00;;;;;;;;;;5060561;28;20691;-66
2021/05/30 16:03:45;;;;;;;0.30;0.13;;;;;;;;;;5060589;28;20280;-66
2021/05/30 16:06:12;;;;;;;0.00;0.00;;;;;;;;;;5056968;28;20191;-66
2021/05/30 16:08:39;;;;;;;0.60;0.33;;;;;;;;;;5050728;28;20239;-66
2021/05/30 16:11:05;;;;;;;1.50;0.70;;;;;;;;;;5060584;28;20239;-66
2021/05/30 16:13:32;;;;;;;0.13;0.13;;;;;;;;;;5062840;28;20182;-66
2021/05/30 16:15:58;;;;;;;0.43;0.43;;;;;;;;;;5064306;28;20225;-65
2021/05/30 16:18:25;;;;;;;5.63;0.40;;;;;;;;;;5059614;28;20277;-66
2021/05/30 16:20:51;;;;;;;0.77;0.10;;;;;;;;;;5056484;28;20186;-66
2021/05/30 16:23:18;;;;;;;1.13;0.57;;;;;;;;;;5059682;28;20214;-66
2021/05/30 16:25:45;;;;;;;0.00;0.00;;;;;;;;;;5059906;28;20844;-67
2021/05/30 16:28:11;;;;;;;0.43;0.07;;;;;;;;;;5054018;28;20228;-66
2021/05/30 16:30:38;;;;;;;0.87;0.10;;;;;;;;;;5062479;28;20947;-66
2021/05/30 16:33:05;;;;;;;1.63;1.53;;;;;;;;;;5059794;28;20190;-66
2021/05/30 16:35:31;;;;;;;0.00;0.00;;;;;;;;;;5059416;28;20194;-66
2021/05/30 16:37:59;;;;;;;2.73;0.30;;;;;;;;;;5059786;28;20556;-66
2021/05/30 16:40:25;;;;;;;0.37;0.13;;;;;;;;;;5059838;28;20916;-67
2021/05/30 16:42:52;;;;;;;7.83;0.73;;;;;;;;;;5059655;28;20724;-66
2021/05/30 16:45:20;;;;;;;0.10;0.10;;;;;;;;;;5063040;28;20196;-66
2021/05/30 16:47:48;;;;;;;0.00;0.00;;;;;;;;;;5059787;28;20194;-66
2021/05/30 16:50:15;;;;;;;1.80;0.40;;;;;;;;;;5059561;28;20187;-66
2021/05/30 16:52:41;;;;;;;0.10;0.10;;;;;;;;;;5059415;28;20274;-66
2021/05/30 16:55:08;;;;;;;0.00;0.00;;;;;;;;;;5065896;28;20182;-66
2021/05/30 16:57:35;;;;;;;0.00;0.00;;;;;;;;;;5067179;28;20294;-66
2021/05/30 17:00:02;;;;;;;0.00;0.00;;;;;;;;;;5059547;28;20190;-66
2021/05/30 17:02:28;;;;;;;0.10;0.10;;;;;;;;;;5059288;28;20290;-66
2021/05/30 17:04:55;;;;;;;0.30;0.10;;;;;;;;;;5059823;28;20216;-66
2021/05/30 17:07:22;;;;;;;1.23;1.13;;;;;;;;;;5061541;28;20186;-66
2021/05/30 17:09:49;;;;;;;0.43;0.43;;;;;;;;;;5065373;28;20709;-67
2021/05/30 17:12:15;;;;;;;0.33;0.30;;;;;;;;;;5064766;28;20202;-66
2021/05/30 17:14:42;;;;;;;0.00;0.00;;;;;;;;;;5059273;28;20335;-67
2021/05/30 17:17:09;;;;;;;0.00;0.00;;;;;;;;;;5059720;28;20203;-65
2021/05/30 17:19:36;;;;;;;1.13;0.10;;;;;;;;;;5062023;28;20214;-66
2021/05/30 17:22:02;;;;;;;0.60;0.17;;;;;;;;;;5063680;28;20202;-64
2021/05/30 17:24:29;;;;;;;0.50;0.50;;;;;;;;;;5058940;28;20871;-66
2021/05/30 17:26:56;;;;;;;12.43;1.37;;;;;;;;;;5055876;28;20179;-66
2021/05/30 17:29:22;;;;;;;0.00;0.00;;;;;;;;;;5053681;28;20285;-66
2021/05/30 17:31:49;;;;;;;0.00;0.00;;;;;;;;;;5056954;28;20204;-65
2021/05/30 17:34:15;;;;;;;0.27;0.27;;;;;;;;;;5064010;28;20301;-66
2021/05/30 17:36:42;;;;;;;0.10;0.10;;;;;;;;;;5067016;28;20190;-66
2021/05/30 17:39:10;;;;;;;0.00;0.00;;;;;;;;;;5063923;28;20707;-66
2021/05/30 17:41:37;;;;;;;0.37;0.10;;;;;;;;;;5058712;28;20206;-67
2021/05/30 17:44:04;;;;;;;0.70;0.10;;;;;;;;;;5069470;28;20234;-67
2021/05/30 17:46:30;;;;;;;0.00;0.00;;;;;;;;;;5060093;28;20398;-67
2021/05/30 17:48:57;;;;;;;0.00;0.00;;;;;;;;;;5076073;28;20650;-66
2021/05/30 17:51:25;;;;;;;0.00;0.00;;;;;;;;;;5065781;28;20185;-66
2021/05/30 17:53:52;;;;;;;5.30;0.57;;;;;;;;;;5061936;28;20205;-66
2021/05/30 17:56:18;;;;;;;0.10;0.10;;;;;;;;;;5063999;28;20259;-65
2021/05/30 17:58:45;;;;;;;0.00;0.00;;;;;;;;;;5072307;28;20927;-66
2021/05/30 18:01:12;;;;;;;0.40;0.40;;;;;;;;;;5066806;28;20180;-65
2021/05/30 18:03:39;;;;;;;0.30;0.23;;;;;;;;;;5067912;28;20209;-66
2021/05/30 18:06:05;;;;;;;0.20;0.20;;;;;;;;;;5064146;28;20183;-66
2021/05/30 18:08:32;;;;;;;2.03;0.07;;;;;;;;;;5064596;28;20213;-66
2021/05/30 18:11:04;;;;;;;0.00;0.00;;;;;;;;;;5065548;28;20193;-66
2021/05/30 18:13:31;;;;;;;1.70;0.67;;;;;;;;;;5066360;28;20234;-65
2021/05/30 18:15:59;;;;;;;0.93;0.07;;;;;;;;;;5063115;28;21115;-66
2021/05/30 18:18:26;;;;;;;0.20;0.20;;;;;;;;;;5060855;28;20189;-65
2021/05/30 18:20:54;;;;;;;0.00;0.00;;;;;;;;;;5061593;28;20182;-65
2021/05/30 18:23:22;;;;;;;0.00;0.00;;;;;;;;;;5059738;28;20238;-66
2021/05/30 18:25:48;;;;;;;0.40;0.30;;;;;;;;;;5062113;28;21051;-66
2021/05/30 18:28:15;;;;;;;0.00;0.00;;;;;;;;;;5066125;28;20175;-66
2021/05/30 18:30:43;;;;;;;0.20;0.20;;;;;;;;;;5064925;28;20185;-66
2021/05/30 18:33:10;;;;;;;0.20;0.20;;;;;;;;;;5063037;28;20190;-66
2021/05/30 18:35:38;;;;;;;0.00;0.00;;;;;;;;;;5059271;28;20198;-66
2021/05/30 18:38:05;;;;;;;0.00;0.00;;;;;;;;;;5063043;28;20301;-66
2021/05/30 18:40:33;;;;;;;0.90;0.37;;;;;;;;;;5066652;28;20641;-66
2021/05/30 18:43:00;;;;;;;0.00;0.00;;;;;;;;;;5064143;28;20210;-66
2021/05/30 18:45:28;;;;;;;0.37;0.37;;;;;;;;;;5059909;28;20183;-66
2021/05/30 18:47:55;;;;;;;0.10;0.10;;;;;;;;;;5065297;28;20181;-66
2021/05/30 18:50:22;;;;;;;0.40;0.20;;;;;;;;;;5062510;28;20177;-65
2021/05/30 18:52:48;;;;;;;0.00;0.00;;;;;;;;;;5062013;28;20203;-65
2021/05/30 18:55:15;;;;;;;0.57;0.57;;;;;;;;;;5067383;28;20185;-65
2021/05/30 18:57:42;;;;;;;5.10;0.40;;;;;;;;;;5067405;28;20189;-66
2021/05/30 19:00:11;;;;;;;3.00;0.63;;;;;;;;;;5059989;28;20915;-65
2021/05/30 19:02:37;;;;;;;0.20;0.07;;;;;;;;;;5057651;28;20583;-66
2021/05/30 19:05:06;;;;;;;0.10;0.10;;;;;;;;;;5057406;28;20197;-66
2021/05/30 19:07:32;;;;;;;0.30;0.30;;;;;;;;;;5061799;28;20616;-66
2021/05/30 19:09:59;;;;;;;1.80;0.30;;;;;;;;;;5063110;28;20182;-66
2021/05/30 19:12:25;;;;;;;0.37;0.37;;;;;;;;;;5068466;28;20190;-66
2021/05/30 19:14:52;;;;;;;1.00;0.20;;;;;;;;;;5063803;28;20187;-66
2021/05/30 19:17:19;;;;;;;0.07;0.07;;;;;;;;;;5060866;28;20193;-66
2021/05/30 19:19:46;;;;;;;1.00;0.20;;;;;;;;;;5064339;28;20201;-66
2021/05/30 19:22:13;;;;;;;0.07;0.07;;;;;;;;;;5058855;28;20214;-66
2021/05/30 19:24:41;;;;;;;17.43;10.00;;;;;;;;;;5065978;28;20189;-66
2021/05/30 19:27:08;;;;;;;0.50;0.33;;;;;;;;;;5067343;28;20282;-66
2021/05/30 19:29:34;;;;;;;0.93;0.53;;;;;;;;;;5060117;28;20180;-66
2021/05/30 19:32:01;;;;;;;1.60;0.23;;;;;;;;;;5066457;28;20262;-66
2021/05/30 19:34:28;;;;;;;0.03;0.00;;;;;;;;;;5059023;28;20944;-66
2021/05/30 19:36:55;;;;;;;0.63;0.40;;;;;;;;;;5061217;28;20183;-65
2021/05/30 19:39:21;;;;;;;0.73;0.30;;;;;;;;;;5057465;28;20281;-66
2021/05/30 19:41:48;;;;;;;0.63;0.07;;;;;;;;;;5059717;28;20773;-66
2021/05/30 19:44:14;;;;;;;0.67;0.30;;;;;;;;;;5066596;28;20218;-66
2021/05/30 19:46:41;;;;;;;0.00;0.00;;;;;;;;;;5061212;28;20300;-66
2021/05/30 19:49:08;;;;;;;1.80;0.93;;;;;;;;;;5059095;28;20190;-66
2021/05/30 19:51:35;;;;;;;0.00;0.00;;;;;;;;;;5066224;28;20179;-66
2021/05/30 19:54:01;;;;;;;0.00;0.00;;;;;;;;;;5062677;28;20189;-66
2021/05/30 19:56:28;;;;;;;0.00;0.00;;;;;;;;;;5064488;28;20256;-66
2021/05/30 19:58:55;;;;;;;0.00;0.00;;;;;;;;;;5060012;28;20212;-66
2021/05/30 20:01:26;;;;;;;0.00;0.00;;;;;;;;;;5064976;28;20185;-66
2021/05/30 20:03:53;;;;;;;0.20;0.20;;;;;;;;;;5058709;28;20189;-66
2021/05/30 20:06:20;;;;;;;3.03;0.50;;;;;;;;;;5056274;28;20208;-67
2021/05/30 20:08:47;;;;;;;0.63;0.63;;;;;;;;;;5063808;28;20186;-67
2021/05/30 20:11:14;;;;;;;0.30;0.10;;;;;;;;;;5065900;28;20218;-67